createdAt,value
2023-11-30T00:00:16.270Z,17.40
2023-11-30T00:03:02.637Z,16.85
2023-11-30T00:05:49.185Z,15.68
2023-11-30T00:08:35.739Z,18.42
2023-11-30T00:11:22.219Z,25.77
2023-11-30T00:14:09.915Z,34.78
2023-11-30T00:16:56.698Z,18.92
2023-11-30T00:19:43.144Z,14.30
2023-11-30T00:22:29.442Z,12.95
2023-11-30T00:25:16.060Z,11.95
2023-11-30T00:28:02.366Z,14.10
2023-11-30T00:30:50.182Z,13.90
2023-11-30T00:33:36.533Z,18.98
2023-11-30T00:36:22.898Z,18.13
2023-11-30T00:39:09.310Z,19.08
2023-11-30T00:41:56.717Z,15.80
2023-11-30T00:44:43.301Z,15.65
2023-11-30T00:47:30.901Z,20.58
2023-11-30T00:50:17.298Z,14.30
2023-11-30T00:53:04.126Z,14.32
2023-11-30T00:55:50.264Z,14.80
2023-11-30T00:58:36.491Z,17.33
2023-11-30T01:01:23.004Z,15.30
2023-11-30T01:04:10.891Z,14.07
2023-11-30T01:06:57.622Z,16.35
2023-11-30T01:09:43.772Z,16.50
2023-11-30T01:12:30.189Z,19.80
2023-11-30T01:15:16.912Z,20.83
2023-11-30T01:18:05.004Z,18.20
2023-11-30T01:20:52.991Z,18.27
2023-11-30T01:23:39.243Z,17.55
2023-11-30T01:26:25.385Z,14.20
2023-11-30T01:29:11.686Z,16.60
2023-11-30T01:31:58.251Z,20.65
2023-11-30T01:34:45.345Z,22.75
2023-11-30T01:37:33.145Z,17.75
2023-11-30T01:40:19.350Z,19.27
2023-11-30T01:43:07.857Z,18.40
2023-11-30T01:46:02.662Z,17.00
2023-11-30T01:48:50.913Z,21.00
2023-11-30T01:51:38.589Z,24.08
2023-11-30T01:54:27.186Z,20.02
2023-11-30T01:57:14.220Z,17.30
2023-11-30T02:00:00.706Z,17.77
2023-11-30T02:02:47.405Z,18.63
2023-11-30T02:05:33.760Z,20.52
2023-11-30T02:08:20.313Z,16.08
2023-11-30T02:11:08.319Z,19.00
2023-11-30T02:13:56.429Z,18.13
2023-11-30T02:16:42.935Z,32.45
2023-11-30T02:19:29.412Z,46.97
2023-11-30T02:22:16.888Z,49.83
2023-11-30T02:25:03.372Z,32.08
2023-11-30T02:27:49.940Z,36.40
2023-11-30T02:30:38.190Z,41.80
2023-11-30T02:33:24.627Z,41.15
2023-11-30T02:36:11.684Z,40.88
2023-11-30T02:38:59.726Z,41.67
2023-11-30T02:41:46.345Z,33.53
2023-11-30T02:44:32.501Z,53.70
2023-11-30T02:47:18.843Z,51.28
2023-11-30T02:50:06.275Z,36.22
2023-11-30T02:52:52.611Z,28.38
2023-11-30T02:55:40.451Z,28.92
2023-11-30T02:58:26.925Z,28.88
2023-11-30T03:01:13.426Z,31.02
2023-11-30T03:03:59.644Z,35.70
2023-11-30T03:06:50.603Z,24.80
2023-11-30T03:12:24.279Z,27.92
2023-11-30T03:15:11.406Z,27.23
2023-11-30T03:17:57.768Z,27.35
2023-11-30T03:20:44.056Z,29.83
2023-11-30T03:23:30.465Z,24.10
2023-11-30T03:26:18.394Z,32.95
2023-11-30T03:29:06.056Z,37.42
2023-11-30T03:31:52.565Z,72.03
2023-11-30T03:34:39.199Z,82.28
2023-11-30T03:37:25.688Z,39.00
2023-11-30T03:40:12.991Z,56.30
2023-11-30T03:42:59.110Z,43.95
2023-11-30T03:45:46.974Z,34.05
2023-11-30T03:48:33.313Z,36.85
2023-11-30T03:51:19.769Z,27.73
2023-11-30T03:54:06.649Z,34.15
2023-11-30T03:56:53.368Z,32.95
2023-11-30T03:59:41.044Z,30.30
2023-11-30T04:02:28.692Z,27.67
2023-11-30T04:05:15.553Z,28.95
2023-11-30T04:08:02.485Z,28.15
2023-11-30T04:10:49.247Z,25.65
2023-11-30T04:13:35.298Z,26.33
2023-11-30T04:16:21.598Z,27.88
2023-11-30T04:19:09.494Z,27.17
2023-11-30T04:21:55.977Z,29.17
2023-11-30T04:24:42.495Z,28.70
2023-11-30T04:27:28.948Z,24.85
2023-11-30T04:30:16.722Z,28.90
2023-11-30T04:33:03.251Z,25.65
2023-11-30T04:35:51.026Z,25.85
2023-11-30T04:38:37.406Z,24.27
2023-11-30T04:41:23.376Z,33.92
2023-11-30T04:44:10.127Z,25.92
2023-11-30T04:46:56.504Z,26.23
2023-11-30T04:49:43.057Z,25.77
2023-11-30T04:52:30.650Z,26.20
2023-11-30T04:55:17.342Z,35.05
2023-11-30T04:58:03.746Z,33.92
2023-11-30T05:00:50.371Z,31.70
2023-11-30T05:03:36.945Z,34.20
2023-11-30T05:06:23.572Z,35.47
2023-11-30T05:09:11.721Z,39.47
2023-11-30T05:11:58.370Z,34.17
2023-11-30T05:14:44.763Z,33.03
2023-11-30T05:17:31.351Z,27.17
2023-11-30T05:20:17.903Z,28.20
2023-11-30T05:23:04.458Z,31.58
2023-11-30T05:25:55.337Z,34.50
2023-11-30T05:28:41.701Z,26.38
2023-11-30T05:31:27.926Z,31.05
2023-11-30T05:34:14.448Z,29.00
2023-11-30T05:37:00.979Z,30.27
2023-11-30T05:39:47.415Z,29.00
2023-11-30T05:42:35.463Z,27.35
2023-11-30T05:45:22.034Z,25.52
2023-11-30T05:48:11.697Z,32.03
2023-11-30T05:50:58.360Z,28.20
2023-11-30T05:53:44.981Z,26.88
2023-11-30T05:56:31.402Z,25.98
2023-11-30T05:59:18.926Z,28.27
2023-11-30T06:02:06.215Z,28.67
2023-11-30T06:04:53.327Z,26.30
2023-11-30T06:07:39.853Z,25.58
2023-11-30T06:10:26.333Z,30.10
2023-11-30T06:13:14.126Z,31.15
2023-11-30T06:16:01.955Z,26.70
2023-11-30T06:18:48.351Z,26.58
2023-11-30T06:21:34.742Z,29.48
2023-11-30T06:24:21.196Z,28.42
2023-11-30T06:27:08.387Z,26.52
2023-11-30T06:29:54.987Z,34.05
2023-11-30T06:32:42.765Z,29.58
2023-11-30T06:35:29.204Z,32.85
2023-11-30T06:38:15.660Z,24.67
2023-11-30T06:41:02.300Z,26.33
2023-11-30T06:43:48.584Z,28.10
2023-11-30T06:46:35.514Z,25.67
2023-11-30T06:49:23.485Z,25.92
2023-11-30T06:52:10.058Z,26.52
2023-11-30T06:54:56.440Z,28.05
2023-11-30T06:57:43.063Z,25.58
2023-11-30T07:00:29.160Z,25.58
2023-11-30T07:03:15.735Z,25.13
2023-11-30T07:06:03.837Z,26.25
2023-11-30T07:08:50.427Z,26.00
2023-11-30T07:11:36.876Z,27.02
2023-11-30T07:14:24.120Z,26.50
2023-11-30T07:17:10.464Z,24.10
2023-11-30T07:19:57.032Z,23.15
2023-11-30T07:22:45.215Z,26.10
2023-11-30T07:25:31.407Z,25.85
2023-11-30T07:28:17.982Z,22.50
2023-11-30T07:31:04.740Z,29.50
2023-11-30T07:33:51.303Z,25.00
2023-11-30T07:36:38.096Z,25.63
2023-11-30T07:39:25.846Z,26.80
2023-11-30T07:42:13.366Z,26.50
2023-11-30T07:45:02.962Z,26.20
2023-11-30T07:47:50.226Z,27.23
2023-11-30T07:50:36.690Z,26.05
2023-11-30T07:53:24.384Z,30.02
2023-11-30T07:56:12.470Z,24.58
2023-11-30T07:58:58.866Z,27.63
2023-11-30T08:01:45.515Z,25.38
2023-11-30T08:04:32.192Z,28.35
2023-11-30T08:07:18.436Z,28.25
2023-11-30T08:10:07.453Z,27.88
2023-11-30T08:12:54.976Z,25.55
2023-11-30T08:15:41.317Z,28.25
2023-11-30T08:18:27.610Z,26.30
2023-11-30T08:21:17.130Z,27.87
2023-11-30T08:24:03.700Z,32.35
2023-11-30T08:26:50.370Z,30.90
2023-11-30T08:29:38.117Z,31.45
2023-11-30T08:32:25.695Z,31.70
2023-11-30T08:35:12.583Z,32.72
2023-11-30T08:37:59.020Z,32.83
2023-11-30T08:40:45.330Z,32.92
2023-11-30T08:43:31.979Z,34.88
2023-11-30T08:46:19.793Z,31.60
2023-11-30T08:49:06.094Z,39.92
2023-11-30T08:51:53.404Z,39.35
2023-11-30T08:54:40.110Z,36.05
2023-11-30T08:57:29.941Z,34.85
2023-11-30T09:00:20.372Z,35.67
2023-11-30T09:03:09.091Z,37.75
2023-11-30T09:05:56.023Z,32.40
2023-11-30T09:08:42.630Z,34.83
2023-11-30T09:11:31.040Z,34.95
2023-11-30T09:14:17.274Z,40.20
2023-11-30T09:17:05.373Z,33.60
2023-11-30T09:19:53.093Z,36.17
2023-11-30T09:22:40.693Z,41.45
2023-11-30T09:25:27.604Z,36.35
2023-11-30T09:28:13.916Z,34.88
2023-11-30T09:31:03.244Z,36.00
2023-11-30T09:33:49.765Z,36.83
2023-11-30T09:36:38.502Z,39.25
2023-11-30T09:39:25.012Z,41.75
2023-11-30T09:42:17.079Z,36.92
2023-11-30T09:45:05.400Z,40.65
2023-11-30T09:47:52.032Z,45.17
2023-11-30T09:50:38.851Z,42.05
2023-11-30T09:53:27.124Z,51.92
2023-11-30T09:56:13.697Z,51.72
2023-11-30T09:59:00.211Z,46.03
2023-11-30T10:01:46.584Z,50.97
2023-11-30T10:04:33.179Z,48.80
2023-11-30T10:07:19.980Z,51.35
2023-11-30T10:10:10.121Z,51.50
2023-11-30T10:12:56.620Z,48.78
2023-11-30T10:15:43.110Z,53.70
2023-11-30T10:18:31.371Z,53.15
2023-11-30T10:21:17.812Z,59.10
2023-11-30T10:24:04.490Z,58.50
2023-11-30T10:26:53.602Z,49.05
2023-11-30T10:29:44.720Z,50.20
2023-11-30T10:32:33.932Z,59.47
2023-11-30T10:35:23.140Z,55.30
2023-11-30T10:38:11.790Z,57.92
2023-11-30T10:41:02.656Z,51.72
2023-11-30T10:43:54.484Z,52.45
2023-11-30T10:46:43.877Z,48.67
2023-11-30T10:49:31.083Z,49.38
2023-11-30T10:52:19.591Z,49.53
2023-11-30T10:55:10.230Z,48.15
2023-11-30T10:57:58.533Z,47.42
2023-11-30T11:00:46.871Z,53.85
2023-11-30T11:03:33.865Z,48.63
2023-11-30T11:06:26.307Z,53.90
2023-11-30T11:09:16.777Z,48.00
2023-11-30T11:12:03.697Z,55.22
2023-11-30T11:14:50.940Z,54.63
2023-11-30T11:17:49.128Z,44.22
2023-11-30T11:20:38.140Z,48.55
2023-11-30T11:23:24.684Z,48.83
2023-11-30T11:26:11.358Z,47.50
2023-11-30T11:28:58.131Z,46.10
2023-11-30T11:31:44.576Z,42.35
2023-11-30T11:34:33.150Z,44.75
2023-11-30T11:37:20.437Z,43.80
2023-11-30T11:40:07.735Z,44.78
2023-11-30T11:42:54.432Z,47.08
2023-11-30T11:45:44.038Z,44.08
2023-11-30T11:48:30.377Z,46.92
2023-11-30T11:51:18.180Z,41.88
2023-11-30T11:54:05.031Z,41.33
2023-11-30T11:56:52.616Z,37.20
2023-11-30T11:59:39.184Z,39.40
2023-11-30T12:02:25.839Z,36.83
2023-11-30T12:05:13.631Z,35.47
2023-11-30T12:08:02.423Z,43.50
2023-11-30T12:10:51.654Z,39.83
2023-11-30T12:13:38.990Z,32.95
2023-11-30T12:16:25.581Z,36.70
2023-11-30T12:19:12.164Z,37.45
2023-11-30T12:21:58.423Z,39.83
2023-11-30T12:24:46.378Z,40.42
2023-11-30T12:27:32.592Z,35.03
2023-11-30T12:30:19.841Z,36.38
2023-11-30T12:33:06.356Z,39.95
2023-11-30T12:35:53.589Z,39.63
2023-11-30T12:38:39.948Z,40.40
2023-11-30T12:41:27.764Z,39.30
2023-11-30T12:44:14.710Z,36.22
2023-11-30T12:47:00.773Z,34.22
2023-11-30T12:49:48.840Z,31.58
2023-11-30T12:52:35.502Z,30.58
2023-11-30T12:55:22.045Z,31.17
2023-11-30T12:58:11.300Z,31.95
2023-11-30T13:00:57.659Z,29.02
2023-11-30T13:03:47.241Z,36.42
2023-11-30T13:06:33.811Z,34.50
2023-11-30T13:09:21.079Z,31.38
2023-11-30T13:12:07.941Z,29.42
2023-11-30T13:14:57.320Z,37.72
2023-11-30T13:17:46.805Z,36.37
2023-11-30T13:20:36.364Z,37.47
2023-11-30T13:23:22.668Z,37.92
2023-11-30T13:26:09.278Z,35.08
2023-11-30T13:28:55.577Z,37.83
2023-11-30T13:31:44.179Z,38.80
2023-11-30T13:34:31.327Z,39.50
2023-11-30T13:37:17.632Z,40.50
2023-11-30T13:40:06.702Z,37.95
2023-11-30T13:42:53.375Z,35.85
2023-11-30T13:45:39.742Z,39.65
2023-11-30T13:48:28.226Z,36.45
2023-11-30T13:51:15.669Z,39.17
2023-11-30T13:54:02.263Z,39.72
2023-11-30T13:56:48.743Z,45.42
2023-11-30T13:59:35.964Z,37.70
2023-11-30T14:02:22.313Z,44.35
2023-11-30T14:05:10.681Z,38.33
2023-11-30T14:07:56.956Z,38.75
2023-11-30T14:10:43.503Z,39.85
2023-11-30T14:13:29.940Z,37.97
2023-11-30T14:16:16.800Z,40.38
2023-11-30T14:19:03.597Z,40.55
2023-11-30T14:21:51.310Z,40.78
2023-11-30T14:24:37.759Z,44.50
2023-11-30T14:27:24.382Z,39.92
2023-11-30T14:30:11.425Z,41.55
2023-11-30T14:32:57.726Z,38.05
2023-11-30T14:35:44.333Z,44.03
2023-11-30T14:38:34.275Z,45.55
2023-11-30T14:41:20.372Z,38.47
2023-11-30T14:44:06.945Z,39.88
2023-11-30T14:46:53.681Z,37.85
2023-11-30T14:49:40.119Z,39.30
2023-11-30T14:52:26.635Z,43.97
2023-11-30T14:55:14.809Z,39.30
2023-11-30T14:58:01.569Z,38.25
2023-11-30T15:00:48.573Z,37.85
2023-11-30T15:03:35.495Z,40.55
2023-11-30T15:06:21.861Z,43.85
2023-11-30T15:09:09.284Z,42.75
2023-11-30T15:11:57.038Z,41.85
2023-11-30T15:14:43.411Z,42.15
2023-11-30T15:17:29.807Z,41.08
2023-11-30T15:20:17.838Z,39.33
2023-11-30T15:23:08.413Z,38.70
2023-11-30T15:25:55.673Z,38.25
2023-11-30T15:28:43.619Z,39.47
2023-11-30T15:31:29.950Z,38.03
2023-11-30T15:34:16.547Z,38.50
2023-11-30T15:37:05.280Z,40.28
2023-11-30T15:39:54.129Z,40.50
2023-11-30T15:42:40.477Z,40.47
2023-11-30T15:45:28.414Z,41.33
2023-11-30T15:48:15.034Z,40.60
2023-11-30T15:51:03.142Z,40.55
2023-11-30T15:53:49.406Z,38.25
2023-11-30T15:56:36.169Z,39.30
2023-11-30T15:59:22.335Z,40.63
2023-11-30T16:02:10.194Z,36.67
2023-11-30T16:04:56.402Z,36.80
2023-11-30T16:07:43.172Z,35.50
2023-11-30T16:10:29.374Z,36.92
2023-11-30T16:13:15.703Z,37.63
2023-11-30T16:16:06.209Z,40.38
2023-11-30T16:18:54.069Z,35.72
2023-11-30T16:21:40.525Z,42.08
2023-11-30T16:24:27.071Z,43.03
2023-11-30T16:27:13.214Z,38.70
2023-11-30T16:29:59.593Z,40.30
2023-11-30T16:32:46.320Z,40.50
2023-11-30T16:35:33.863Z,32.72
2023-11-30T16:38:21.484Z,36.95
2023-11-30T16:41:08.446Z,37.25
2023-11-30T16:43:54.841Z,36.97
2023-11-30T16:46:41.287Z,42.80
2023-11-30T16:49:27.702Z,40.00
2023-11-30T16:52:15.460Z,41.38
2023-11-30T16:55:02.739Z,43.08
2023-11-30T16:57:50.115Z,42.55
2023-11-30T17:00:36.541Z,47.97
2023-11-30T17:03:22.999Z,42.17
2023-11-30T17:06:12.869Z,49.37
2023-11-30T17:09:00.924Z,44.40
2023-11-30T17:11:47.240Z,42.13
2023-11-30T17:14:34.022Z,47.00
2023-11-30T17:17:20.229Z,53.40
2023-11-30T17:20:08.744Z,44.22
2023-11-30T17:22:55.157Z,47.95
2023-11-30T17:25:44.682Z,46.72
2023-11-30T17:28:31.168Z,48.13
2023-11-30T17:31:17.640Z,46.05
2023-11-30T17:34:07.486Z,47.58
2023-11-30T17:36:53.803Z,42.50
2023-11-30T17:39:41.175Z,44.97
2023-11-30T17:42:29.826Z,51.63
2023-11-30T17:45:16.469Z,46.50
2023-11-30T17:48:05.518Z,46.63
2023-11-30T17:50:52.200Z,48.92
2023-11-30T17:53:38.468Z,49.05
2023-11-30T17:56:24.584Z,52.05
2023-11-30T17:59:13.142Z,45.97
2023-11-30T18:01:59.482Z,60.70
2023-11-30T18:04:45.542Z,113.70
2023-11-30T18:07:32.398Z,51.42
2023-11-30T18:10:18.637Z,128.10
2023-11-30T18:13:04.874Z,75.25
2023-11-30T18:15:56.143Z,78.93
2023-11-30T18:18:42.757Z,159.38
2023-11-30T18:21:30.192Z,80.28
2023-11-30T18:24:16.796Z,69.07
2023-11-30T18:27:04.506Z,115.22
2023-11-30T18:29:51.217Z,83.40
2023-11-30T18:32:42.809Z,63.53
2023-11-30T18:35:29.294Z,107.03
2023-11-30T18:38:15.884Z,218.20
2023-11-30T18:41:02.540Z,189.98
2023-11-30T18:43:49.300Z,217.23
2023-11-30T18:46:35.868Z,360.73
2023-11-30T18:49:24.085Z,313.67
2023-11-30T18:52:10.992Z,184.07
2023-11-30T18:54:57.679Z,350.80
2023-11-30T18:57:44.195Z,277.65
2023-11-30T19:00:30.608Z,279.27
2023-11-30T19:03:16.828Z,296.88
2023-11-30T19:06:04.993Z,220.85
2023-11-30T19:08:51.782Z,267.05
2023-11-30T19:11:38.198Z,317.00
2023-11-30T19:14:25.035Z,166.90
2023-11-30T19:17:11.296Z,139.60
2023-11-30T19:19:57.748Z,177.52
2023-11-30T19:22:47.030Z,134.73
2023-11-30T19:25:33.880Z,154.80
2023-11-30T19:28:20.205Z,151.45
2023-11-30T19:31:07.638Z,230.40
2023-11-30T19:33:54.532Z,215.45
2023-11-30T19:36:41.012Z,196.20
2023-11-30T19:39:28.687Z,162.05
2023-11-30T19:42:15.235Z,187.45
2023-11-30T19:45:01.615Z,236.05
2023-11-30T19:47:48.152Z,219.23
2023-11-30T19:50:35.497Z,149.40
2023-11-30T19:53:22.559Z,144.77
2023-11-30T19:56:14.265Z,151.65
2023-11-30T19:59:00.844Z,139.80
2023-11-30T20:01:47.247Z,159.10
2023-11-30T20:04:33.915Z,138.57
2023-11-30T20:07:20.277Z,160.07
2023-11-30T20:10:08.164Z,120.03
2023-11-30T20:12:56.503Z,78.72
2023-11-30T20:15:42.721Z,162.23
2023-11-30T20:18:29.132Z,93.40
2023-11-30T20:21:19.489Z,206.13
2023-11-30T20:24:06.183Z,191.48
2023-11-30T20:26:54.952Z,109.18
2023-11-30T20:29:42.875Z,154.63
2023-11-30T20:32:29.349Z,257.90
2023-11-30T20:35:15.583Z,200.38
2023-11-30T20:38:02.110Z,291.83
2023-11-30T20:40:48.631Z,114.78
2023-11-30T20:43:35.208Z,148.75
2023-11-30T20:46:23.036Z,177.30
2023-11-30T20:49:09.273Z,203.38
2023-11-30T20:51:55.634Z,206.80
2023-11-30T20:54:41.926Z,164.10
2023-11-30T20:57:28.416Z,203.07
2023-11-30T21:00:15.658Z,210.63
2023-11-30T21:03:03.669Z,161.77
2023-11-30T21:05:50.321Z,201.88
2023-11-30T21:08:36.891Z,236.50
2023-11-30T21:11:23.558Z,140.30
2023-11-30T21:14:11.510Z,107.97
2023-11-30T21:16:58.193Z,145.07
2023-11-30T21:19:46.184Z,114.75
2023-11-30T21:22:32.868Z,89.80
2023-11-30T21:25:20.882Z,133.07
2023-11-30T21:28:08.849Z,106.60
2023-11-30T21:30:55.408Z,125.63
2023-11-30T21:33:41.845Z,139.90
2023-11-30T21:36:29.752Z,133.45
2023-11-30T21:39:16.135Z,141.40
2023-11-30T21:42:02.505Z,138.60
2023-11-30T21:44:48.974Z,110.88
2023-11-30T21:47:36.801Z,103.93
2023-11-30T21:50:26.341Z,125.75
2023-11-30T21:53:14.952Z,112.55
2023-11-30T21:56:01.419Z,144.70
2023-11-30T21:58:47.712Z,65.63
2023-11-30T22:01:34.092Z,121.63
2023-11-30T22:04:21.052Z,111.50
2023-11-30T22:07:07.328Z,101.72
2023-11-30T22:09:55.164Z,103.35
2023-11-30T22:12:41.460Z,85.30
2023-11-30T22:15:27.966Z,74.25
2023-11-30T22:18:14.516Z,115.90
2023-11-30T22:21:00.866Z,175.15
2023-11-30T22:23:49.010Z,126.03
2023-11-30T22:26:36.829Z,99.10
2023-11-30T22:29:23.154Z,125.80
2023-11-30T22:32:09.701Z,114.10
2023-11-30T22:34:56.168Z,111.43
2023-11-30T22:37:42.610Z,120.82
2023-11-30T22:40:28.715Z,98.60
2023-11-30T22:43:16.291Z,89.82
2023-11-30T22:46:02.782Z,100.55
2023-11-30T22:48:51.038Z,83.07
2023-11-30T22:51:41.753Z,77.95
2023-11-30T22:54:28.929Z,69.45
2023-11-30T22:57:15.497Z,55.90
2023-11-30T23:00:03.512Z,75.10
2023-11-30T23:02:50.358Z,69.55
2023-11-30T23:05:38.571Z,92.00
2023-11-30T23:08:26.893Z,77.72
2023-11-30T23:11:13.469Z,63.42
2023-11-30T23:13:59.788Z,70.82
2023-11-30T23:16:47.597Z,77.50
2023-11-30T23:19:33.904Z,60.70
2023-11-30T23:22:20.284Z,84.72
2023-11-30T23:25:08.202Z,58.53
2023-11-30T23:27:54.679Z,82.13
2023-11-30T23:30:44.019Z,50.38
2023-11-30T23:33:32.341Z,73.32
2023-11-30T23:36:18.772Z,86.47
2023-11-30T23:39:05.536Z,72.35
2023-11-30T23:41:51.658Z,65.63
2023-11-30T23:44:38.908Z,62.78
2023-11-30T23:47:25.224Z,78.18
2023-11-30T23:50:13.646Z,86.45
2023-11-30T23:53:00.220Z,85.95
2023-11-30T23:55:46.405Z,54.72
2023-11-30T23:58:33.144Z,62.10
